createdAt,value
2022-08-05T00:00:01.230Z,25.10
2022-08-05T00:02:29.277Z,25.10
2022-08-05T00:04:57.991Z,25.00
2022-08-05T00:07:59.299Z,24.90
2022-08-05T00:10:14.432Z,24.80
2022-08-05T00:12:55.873Z,24.80
2022-08-05T00:15:55.174Z,24.80
2022-08-05T00:18:15.058Z,24.70
2022-08-05T00:20:50.766Z,24.70
2022-08-05T00:23:44.627Z,24.60
2022-08-05T00:26:07.885Z,24.50
2022-08-05T00:28:37.731Z,24.50
2022-08-05T00:31:08.578Z,24.50
2022-08-05T00:34:54.019Z,24.50
2022-08-05T00:37:11.700Z,24.40
2022-08-05T00:39:15.022Z,24.40
2022-08-05T00:41:55.260Z,24.50
2022-08-05T00:44:30.778Z,24.40
2022-08-05T00:47:03.760Z,24.40
2022-08-05T00:49:44.414Z,24.30
2022-08-05T00:52:28.310Z,24.30
2022-08-05T00:54:57.134Z,24.30
2022-08-05T00:57:31.888Z,24.20
2022-08-05T01:00:16.934Z,24.10
2022-08-05T01:02:45.161Z,24.00
2022-08-05T01:05:13.617Z,24.00
2022-08-05T01:08:39.826Z,24.00
2022-08-05T01:10:35.585Z,24.10
2022-08-05T01:13:13.265Z,24.10
2022-08-05T01:16:01.470Z,24.00
2022-08-05T01:18:34.998Z,23.90
2022-08-05T01:21:12.428Z,24.00
2022-08-05T01:24:14.094Z,23.90
2022-08-05T01:26:59.177Z,23.80
2022-08-05T01:29:34.975Z,23.90
2022-08-05T01:32:12.566Z,23.90
2022-08-05T01:34:51.925Z,23.90
2022-08-05T01:37:25.633Z,23.90
2022-08-05T01:39:59.095Z,23.80
2022-08-05T01:42:30.321Z,23.70
2022-08-05T01:45:03.130Z,23.60
2022-08-05T01:47:39.400Z,23.60
2022-08-05T01:50:15.427Z,23.50
2022-08-05T01:52:49.659Z,23.50
2022-08-05T01:55:20.879Z,23.50
2022-08-05T01:58:12.870Z,23.50
2022-08-05T02:00:45.181Z,23.80
2022-08-05T02:03:31.492Z,24.00
2022-08-05T02:06:03.586Z,24.10
2022-08-05T02:08:55.189Z,24.10
2022-08-05T02:11:33.436Z,24.10
2022-08-05T02:14:08.471Z,24.00
2022-08-05T02:16:52.777Z,23.90
2022-08-05T02:19:34.737Z,23.80
2022-08-05T02:22:10.770Z,23.80
2022-08-05T02:25:00.180Z,23.70
2022-08-05T02:27:58.389Z,23.60
2022-08-05T02:30:22.730Z,23.60
2022-08-05T02:32:55.369Z,23.50
2022-08-05T02:35:27.964Z,23.40
2022-08-05T02:38:02.293Z,23.40
2022-08-05T02:40:32.616Z,23.30
2022-08-05T02:43:02.320Z,23.20
2022-08-05T02:45:51.545Z,23.30
2022-08-05T02:48:29.384Z,23.10
2022-08-05T02:51:00.946Z,23.10
2022-08-05T02:53:39.519Z,23.10
2022-08-05T02:56:16.020Z,23.10
2022-08-05T02:58:51.373Z,23.00
2022-08-05T03:01:27.160Z,23.00
2022-08-05T03:04:02.690Z,22.90
2022-08-05T03:06:56.224Z,22.90
2022-08-05T03:09:36.463Z,22.90
2022-08-05T03:12:08.226Z,22.90
2022-08-05T03:14:46.014Z,22.80
2022-08-05T03:17:14.586Z,22.90
2022-08-05T03:19:45.539Z,22.90
2022-08-05T03:22:16.072Z,23.00
2022-08-05T03:24:51.086Z,23.10
2022-08-05T03:27:21.129Z,23.10
2022-08-05T03:30:08.061Z,23.10
2022-08-05T03:32:40.395Z,23.10
2022-08-05T03:35:10.585Z,23.10
2022-08-05T03:37:46.131Z,23.10
2022-08-05T03:40:31.175Z,23.10
2022-08-05T03:43:58.580Z,23.00
2022-08-05T03:45:57.910Z,23.10
2022-08-05T03:48:27.414Z,23.10
2022-08-05T03:52:37.397Z,23.10
2022-08-05T03:55:51.763Z,23.10
2022-08-05T03:56:50.091Z,23.20
2022-08-05T03:59:21.653Z,23.30
2022-08-05T04:01:58.890Z,23.30
2022-08-05T04:04:30.528Z,23.50
2022-08-05T04:07:01.236Z,23.50
2022-08-05T04:09:32.603Z,23.50
2022-08-05T04:12:05.655Z,23.50
2022-08-05T04:14:57.735Z,23.50
2022-08-05T04:17:36.448Z,23.60
2022-08-05T04:20:20.253Z,23.70
2022-08-05T04:22:52.507Z,23.60
2022-08-05T04:25:38.472Z,23.70
2022-08-05T04:28:12.780Z,23.90
2022-08-05T04:30:41.199Z,24.10
2022-08-05T04:33:11.045Z,24.10
2022-08-05T04:36:16.261Z,23.90
2022-08-05T04:38:40.023Z,23.80
2022-08-05T04:41:10.010Z,23.90
2022-08-05T04:43:46.606Z,23.70
2022-08-05T04:46:27.810Z,23.70
2022-08-05T04:48:58.765Z,23.70
2022-08-05T04:51:30.273Z,23.80
2022-08-05T04:54:01.327Z,23.80
2022-08-05T04:56:34.326Z,23.90
2022-08-05T04:59:24.114Z,24.00
2022-08-05T05:02:07.504Z,24.10
2022-08-05T05:04:44.015Z,23.90
2022-08-05T05:07:12.612Z,24.20
2022-08-05T05:09:45.729Z,24.50
2022-08-05T05:12:14.939Z,24.90
2022-08-05T05:14:50.519Z,25.10
2022-08-05T05:17:23.687Z,25.00
2022-08-05T05:19:56.454Z,25.10
2022-08-05T05:22:26.382Z,25.50
2022-08-05T05:25:00.127Z,25.20
2022-08-05T05:27:44.712Z,25.10
2022-08-05T05:30:31.031Z,25.10
2022-08-05T05:33:08.901Z,25.00
2022-08-05T05:35:44.944Z,24.80
2022-08-05T05:38:22.507Z,24.80
2022-08-05T05:40:57.363Z,24.60
2022-08-05T05:43:56.513Z,24.50
2022-08-05T05:46:17.788Z,24.50
2022-08-05T05:48:48.879Z,24.50
2022-08-05T05:51:22.514Z,24.50
2022-08-05T05:53:57.161Z,24.60
2022-08-05T05:56:31.843Z,24.50
2022-08-05T05:59:05.261Z,24.60
2022-08-05T06:01:37.628Z,24.60
2022-08-05T06:04:08.012Z,24.50
2022-08-05T06:06:36.701Z,24.50
2022-08-05T06:09:05.872Z,24.50
2022-08-05T06:11:39.374Z,24.50
2022-08-05T06:14:07.630Z,24.60
2022-08-05T06:16:37.113Z,24.70
2022-08-05T06:19:07.949Z,24.90
2022-08-05T06:21:38.752Z,24.90
2022-08-05T06:24:11.852Z,25.00
2022-08-05T06:26:51.059Z,25.00
2022-08-05T06:29:46.670Z,24.90
2022-08-05T06:32:26.165Z,24.80
2022-08-05T06:34:58.730Z,24.90
2022-08-05T06:37:57.601Z,25.10
2022-08-05T06:40:18.061Z,24.90
2022-08-05T06:42:51.530Z,24.70
2022-08-05T06:46:02.899Z,25.00
2022-08-05T06:48:46.857Z,25.50
2022-08-05T06:50:58.076Z,25.70
2022-08-05T06:53:29.133Z,26.00
2022-08-05T06:55:58.283Z,26.20
2022-08-05T06:58:35.334Z,26.60
2022-08-05T07:01:07.082Z,26.70
2022-08-05T07:03:36.008Z,26.60
2022-08-05T07:06:14.144Z,26.40
2022-08-05T07:08:47.291Z,25.70
2022-08-05T07:11:16.228Z,25.50
2022-08-05T07:14:02.777Z,25.40
2022-08-05T07:18:08.749Z,25.40
2022-08-05T07:20:31.379Z,25.70
2022-08-05T07:22:30.226Z,25.90
2022-08-05T07:24:59.854Z,26.00
2022-08-05T07:28:00.632Z,26.00
2022-08-05T07:30:39.249Z,26.50
2022-08-05T07:33:10.421Z,26.40
2022-08-05T07:36:03.137Z,26.50
2022-08-05T07:38:35.682Z,26.80
2022-08-05T07:42:08.073Z,26.80
2022-08-05T07:44:14.465Z,26.30
2022-08-05T07:46:50.767Z,26.30
2022-08-05T07:49:20.439Z,25.90
2022-08-05T07:51:53.544Z,25.60
2022-08-05T07:54:30.271Z,25.50
2022-08-05T07:57:41.801Z,25.50
2022-08-05T07:59:48.916Z,25.40
2022-08-05T08:02:18.972Z,25.30
2022-08-05T08:04:48.629Z,25.20
2022-08-05T08:07:22.121Z,25.10
2022-08-05T08:09:53.150Z,25.00
2022-08-05T08:12:35.036Z,25.00
2022-08-05T08:15:09.511Z,24.90
2022-08-05T08:17:46.226Z,24.90
2022-08-05T08:21:00.126Z,24.80
2022-08-05T08:24:00.457Z,24.50
2022-08-05T08:26:04.534Z,24.40
2022-08-05T08:28:36.926Z,24.60
2022-08-05T08:31:14.961Z,24.90
2022-08-05T08:33:51.576Z,24.90
2022-08-05T08:36:38.428Z,24.90
2022-08-05T08:39:14.891Z,25.00
2022-08-05T08:41:50.815Z,25.10
2022-08-05T08:45:23.097Z,25.20
2022-08-05T08:48:06.694Z,25.10
2022-08-05T08:50:31.602Z,24.90
2022-08-05T08:53:07.927Z,24.90
2022-08-05T08:56:03.556Z,24.90
2022-08-05T08:58:43.455Z,24.80
2022-08-05T09:01:17.471Z,24.70
2022-08-05T09:03:48.218Z,24.60
2022-08-05T09:06:27.881Z,24.50
2022-08-05T09:08:58.555Z,24.30
2022-08-05T09:11:51.135Z,24.10
2022-08-05T09:14:58.319Z,24.00
2022-08-05T09:17:09.394Z,23.90
2022-08-05T09:19:55.109Z,24.00
2022-08-05T09:22:31.917Z,24.20
2022-08-05T09:25:02.233Z,24.30
2022-08-05T09:28:04.817Z,24.30
2022-08-05T09:30:35.656Z,24.50
2022-08-05T09:33:07.406Z,24.50
2022-08-05T09:35:36.079Z,24.60
2022-08-05T09:38:12.310Z,24.70
2022-08-05T09:40:53.807Z,25.00
2022-08-05T09:43:41.366Z,25.30
2022-08-05T09:46:27.515Z,25.40
2022-08-05T09:49:07.792Z,25.60
2022-08-05T09:51:49.702Z,25.70
2022-08-05T09:54:30.472Z,25.60
2022-08-05T09:57:02.048Z,25.40
2022-08-05T09:59:34.992Z,25.10
2022-08-05T10:02:07.851Z,24.60
2022-08-05T10:04:38.339Z,24.50
2022-08-05T10:07:20.294Z,24.40
2022-08-05T10:10:14.042Z,24.20
2022-08-05T10:12:49.644Z,24.00
2022-08-05T10:15:25.736Z,24.00
2022-08-05T10:18:09.570Z,23.90
2022-08-05T10:20:41.692Z,23.90
2022-08-05T10:23:33.890Z,23.90
2022-08-05T10:26:05.113Z,23.80
2022-08-05T10:28:36.550Z,23.90
2022-08-05T10:32:54.224Z,24.20
2022-08-05T10:33:54.402Z,24.40
2022-08-05T10:36:23.538Z,24.70
2022-08-05T10:39:00.821Z,24.70
2022-08-05T10:41:45.227Z,24.80
2022-08-05T10:44:19.272Z,24.80
2022-08-05T10:46:50.645Z,24.80
2022-08-05T10:49:27.188Z,24.80
2022-08-05T10:52:05.358Z,24.50
2022-08-05T10:54:56.093Z,24.30
2022-08-05T10:57:33.738Z,24.10
2022-08-05T11:00:20.094Z,24.10
2022-08-05T11:03:24.676Z,24.20
2022-08-05T11:06:06.268Z,24.20
2022-08-05T11:09:16.714Z,24.30
2022-08-05T11:11:52.740Z,24.40
2022-08-05T11:15:01.053Z,24.50
2022-08-05T11:17:59.748Z,24.70
2022-08-05T11:20:43.973Z,24.70
2022-08-05T11:24:05.409Z,25.10
2022-08-05T11:26:33.287Z,25.30
2022-08-05T11:29:06.638Z,25.40
2022-08-05T11:31:57.453Z,25.50
2022-08-05T11:34:39.573Z,25.70
2022-08-05T11:38:26.664Z,25.80
2022-08-05T11:40:03.440Z,26.10
2022-08-05T11:42:40.392Z,26.00
2022-08-05T11:45:14.232Z,25.80
2022-08-05T11:47:54.788Z,25.80
2022-08-05T11:50:23.601Z,25.90
2022-08-05T11:52:57.663Z,26.30
2022-08-05T11:55:32.370Z,26.60
2022-08-05T11:58:10.223Z,26.80
2022-08-05T12:00:41.573Z,26.90
2022-08-05T12:03:29.194Z,26.90
2022-08-05T12:06:02.593Z,26.90
2022-08-05T12:08:32.867Z,26.70
2022-08-05T12:11:05.658Z,26.80
2022-08-05T12:13:48.863Z,27.10
2022-08-05T12:16:20.027Z,27.30
2022-08-05T12:18:55.744Z,27.30
2022-08-05T12:21:26.973Z,27.40
2022-08-05T12:24:05.144Z,27.60
2022-08-05T12:26:36.578Z,27.90
2022-08-05T12:29:09.272Z,27.90
2022-08-05T12:31:42.356Z,27.70
2022-08-05T12:34:21.552Z,27.90
2022-08-05T12:36:53.405Z,28.10
2022-08-05T12:39:28.172Z,28.40
2022-08-05T12:42:10.315Z,28.60
2022-08-05T12:44:44.423Z,28.60
2022-08-05T12:47:13.745Z,28.40
2022-08-05T12:50:02.944Z,28.70
2022-08-05T12:52:39.332Z,28.90
2022-08-05T12:55:23.616Z,28.70
2022-08-05T12:58:50.579Z,28.80
2022-08-05T13:02:01.594Z,28.50
2022-08-05T13:03:41.914Z,28.70
2022-08-05T13:06:18.152Z,28.70
2022-08-05T13:08:51.724Z,28.60
2022-08-05T13:12:01.139Z,28.80
2022-08-05T13:14:19.375Z,28.90
2022-08-05T13:16:50.400Z,29.10
2022-08-05T13:19:21.424Z,29.10
2022-08-05T13:21:56.711Z,29.10
2022-08-05T13:24:50.979Z,28.90
2022-08-05T13:27:17.172Z,28.70
2022-08-05T13:30:32.658Z,28.70
2022-08-05T13:32:50.724Z,28.80
2022-08-05T13:35:26.235Z,29.10
2022-08-05T13:38:15.750Z,29.20
2022-08-05T13:40:52.728Z,29.30
2022-08-05T13:43:22.217Z,29.40
2022-08-05T13:45:51.017Z,29.20
2022-08-05T13:48:58.177Z,29.20
2022-08-05T13:51:08.468Z,29.10
2022-08-05T13:53:47.885Z,28.80
2022-08-05T13:56:18.380Z,28.60
2022-08-05T13:58:52.963Z,28.40
2022-08-05T14:01:36.297Z,28.30
2022-08-05T14:04:29.718Z,28.30
2022-08-05T14:07:26.256Z,28.30
2022-08-05T14:09:48.712Z,28.40
2022-08-05T14:12:17.781Z,28.50
2022-08-05T14:15:00.669Z,28.70
2022-08-05T14:17:34.858Z,28.90
2022-08-05T14:20:07.757Z,28.80
2022-08-05T14:22:36.737Z,28.90
2022-08-05T14:25:21.657Z,28.90
2022-08-05T14:27:53.292Z,28.90
2022-08-05T14:30:21.697Z,29.10
2022-08-05T14:32:50.048Z,29.20
2022-08-05T14:35:20.861Z,28.90
2022-08-05T14:37:55.457Z,28.90
2022-08-05T14:40:25.350Z,28.80
2022-08-05T14:42:53.807Z,28.60
2022-08-05T14:45:24.568Z,28.40
2022-08-05T14:48:05.536Z,28.20
2022-08-05T14:50:40.734Z,28.10
2022-08-05T14:53:09.098Z,28.20
2022-08-05T14:55:40.094Z,28.20
2022-08-05T14:58:11.076Z,27.90
2022-08-05T15:00:58.761Z,27.60
2022-08-05T15:03:33.172Z,27.40
2022-08-05T15:06:07.890Z,27.30
2022-08-05T15:08:59.534Z,27.20
2022-08-05T15:11:51.223Z,27.20
2022-08-05T15:14:35.566Z,27.00
2022-08-05T15:17:46.162Z,26.70
2022-08-05T15:20:01.231Z,26.60
2022-08-05T15:22:29.768Z,26.40
2022-08-05T15:24:59.388Z,26.20
2022-08-05T15:27:32.156Z,26.00
2022-08-05T15:30:05.074Z,25.90
2022-08-05T15:32:33.295Z,25.80
2022-08-05T15:35:04.203Z,25.70
2022-08-05T15:38:34.763Z,25.70
2022-08-05T15:41:03.269Z,25.60
2022-08-05T15:43:22.005Z,25.50
2022-08-05T15:45:59.858Z,25.40
2022-08-05T15:48:30.129Z,25.30
2022-08-05T15:51:03.627Z,25.30
2022-08-05T15:53:38.507Z,25.30
2022-08-05T15:56:20.235Z,25.30
2022-08-05T15:58:50.360Z,25.30
2022-08-05T16:01:20.025Z,25.30
2022-08-05T16:03:50.549Z,25.50
2022-08-05T16:06:21.001Z,25.30
2022-08-05T16:08:55.444Z,25.10
2022-08-05T16:11:42.572Z,25.00
2022-08-05T16:14:17.397Z,24.90
2022-08-05T16:16:47.179Z,24.80
2022-08-05T16:19:25.598Z,24.70
2022-08-05T16:22:05.117Z,24.70
2022-08-05T16:24:39.989Z,24.70
2022-08-05T16:27:15.804Z,24.70
2022-08-05T16:29:51.084Z,24.70
2022-08-05T16:32:23.503Z,24.70
2022-08-05T16:34:58.719Z,24.40
2022-08-05T16:38:15.192Z,24.30
2022-08-05T16:40:28.640Z,24.40
2022-08-05T16:42:57.960Z,24.30
2022-08-05T16:46:03.644Z,24.10
2022-08-05T16:48:25.114Z,23.90
2022-08-05T16:50:54.628Z,23.70
2022-08-05T16:54:02.865Z,23.70
2022-08-05T16:56:12.156Z,23.50
2022-08-05T16:58:41.045Z,23.30
2022-08-05T17:01:11.181Z,23.30
2022-08-05T17:03:42.118Z,23.30
2022-08-05T17:06:11.441Z,23.40
2022-08-05T17:08:52.136Z,23.40
2022-08-05T17:11:25.484Z,23.30
2022-08-05T17:14:05.818Z,23.20
2022-08-05T17:16:37.989Z,23.20
2022-08-05T17:19:09.642Z,23.10
2022-08-05T17:21:40.067Z,22.70
2022-08-05T17:24:27.943Z,22.50
2022-08-05T17:26:59.004Z,22.40
2022-08-05T17:29:33.887Z,22.10
2022-08-05T17:32:17.018Z,21.90
2022-08-05T17:34:55.450Z,21.80
2022-08-05T17:37:41.120Z,21.60
2022-08-05T17:40:17.230Z,21.50
2022-08-05T17:42:51.991Z,21.40
2022-08-05T17:45:23.048Z,21.20
2022-08-05T17:47:55.423Z,21.10
2022-08-05T17:50:28.869Z,21.10
2022-08-05T17:53:02.502Z,21.00
2022-08-05T17:55:38.426Z,20.80
2022-08-05T17:58:13.366Z,20.70
2022-08-05T18:00:45.274Z,20.70
2022-08-05T18:03:58.950Z,20.60
2022-08-05T18:06:11.797Z,20.30
2022-08-05T18:08:45.103Z,20.20
2022-08-05T18:11:24.472Z,20.10
2022-08-05T18:14:03.712Z,20.00
2022-08-05T18:16:33.805Z,20.10
2022-08-05T18:19:04.762Z,19.90
2022-08-05T18:22:09.438Z,19.70
2022-08-05T18:24:25.006Z,19.60
2022-08-05T18:26:55.724Z,19.50
2022-08-05T18:29:41.172Z,19.60
2022-08-05T18:32:12.978Z,19.60
2022-08-05T18:34:43.532Z,19.60
2022-08-05T18:37:16.826Z,19.70
2022-08-05T18:40:31.435Z,19.60
2022-08-05T18:42:49.081Z,19.60
2022-08-05T18:45:17.324Z,19.50
2022-08-05T18:47:48.959Z,19.60
2022-08-05T18:50:45.167Z,19.60
2022-08-05T18:53:20.503Z,19.60
2022-08-05T18:55:52.925Z,19.60
2022-08-05T18:58:27.222Z,19.50
2022-08-05T19:00:57.811Z,19.40
2022-08-05T19:03:52.701Z,19.30
2022-08-05T19:06:22.441Z,19.30
2022-08-05T19:09:08.678Z,19.30
2022-08-05T19:12:00.409Z,19.20
2022-08-05T19:14:44.964Z,19.20
2022-08-05T19:17:14.426Z,19.10
2022-08-05T19:19:46.875Z,19.10
2022-08-05T19:22:18.737Z,19.10
2022-08-05T19:24:56.200Z,19.10
2022-08-05T19:27:27.758Z,19.00
2022-08-05T19:29:58.658Z,18.90
2022-08-05T19:32:27.810Z,18.90
2022-08-05T19:34:56.654Z,18.80
2022-08-05T19:37:35.015Z,18.80
2022-08-05T19:40:18.366Z,18.70
2022-08-05T19:43:04.770Z,18.70
2022-08-05T19:45:36.729Z,18.70
2022-08-05T19:48:06.240Z,18.60
2022-08-05T19:50:38.703Z,18.60
2022-08-05T19:53:10.611Z,18.50
2022-08-05T19:56:15.347Z,18.50
2022-08-05T19:58:29.681Z,18.50
2022-08-05T20:00:58.465Z,18.50
2022-08-05T20:03:40.776Z,18.50
2022-08-05T20:06:15.500Z,18.40
2022-08-05T20:08:47.418Z,18.50
2022-08-05T20:11:17.955Z,18.40
2022-08-05T20:13:58.539Z,18.40
2022-08-05T20:16:36.224Z,18.40
2022-08-05T20:19:06.078Z,18.40
2022-08-05T20:21:35.143Z,18.30
2022-08-05T20:24:11.590Z,18.30
2022-08-05T20:26:39.969Z,18.20
2022-08-05T20:29:26.918Z,18.20
2022-08-05T20:31:58.227Z,18.30
2022-08-05T20:34:30.150Z,18.30
2022-08-05T20:36:59.634Z,18.30
2022-08-05T20:39:35.522Z,18.10
2022-08-05T20:42:07.413Z,18.10
2022-08-05T20:44:39.915Z,18.20
2022-08-05T20:47:08.607Z,18.10
2022-08-05T20:49:39.917Z,18.10
2022-08-05T20:52:10.614Z,18.10
2022-08-05T20:55:15.720Z,18.10
2022-08-05T20:57:43.868Z,18.10
2022-08-05T21:00:34.951Z,18.10
2022-08-05T21:03:06.305Z,18.20
2022-08-05T21:05:48.067Z,18.20
2022-08-05T21:08:26.868Z,18.10
2022-08-05T21:11:09.130Z,18.10
2022-08-05T21:13:46.986Z,18.00
2022-08-05T21:16:30.082Z,18.10
2022-08-05T21:18:59.894Z,18.00
2022-08-05T21:21:43.715Z,17.90
2022-08-05T21:24:15.241Z,17.80
2022-08-05T21:26:58.539Z,17.80
2022-08-05T21:29:31.877Z,17.70
2022-08-05T21:32:01.881Z,17.70
2022-08-05T21:34:31.664Z,17.70
2022-08-05T21:37:01.128Z,17.70
2022-08-05T21:39:30.534Z,17.60
2022-08-05T21:42:04.201Z,17.60
2022-08-05T21:44:33.186Z,17.60
2022-08-05T21:47:01.838Z,17.60
2022-08-05T21:49:56.528Z,17.60
2022-08-05T21:52:27.671Z,17.60
2022-08-05T21:54:57.800Z,17.60
2022-08-05T21:57:42.563Z,17.60
2022-08-05T22:00:12.841Z,17.50
2022-08-05T22:02:42.585Z,17.50
2022-08-05T22:05:12.156Z,17.50
2022-08-05T22:07:58.195Z,17.40
2022-08-05T22:10:28.497Z,17.40
2022-08-05T22:13:09.129Z,17.40
2022-08-05T22:16:02.601Z,17.40
2022-08-05T22:18:39.566Z,17.30
2022-08-05T22:21:19.156Z,17.30
2022-08-05T22:24:40.747Z,17.30
2022-08-05T22:28:09.183Z,17.30
2022-08-05T22:30:23.118Z,17.30
2022-08-05T22:32:51.410Z,17.30
2022-08-05T22:35:23.453Z,17.20
2022-08-05T22:37:58.717Z,17.20
2022-08-05T22:40:28.130Z,17.20
2022-08-05T22:42:59.157Z,17.20
2022-08-05T22:45:29.010Z,17.20
2022-08-05T22:47:58.925Z,17.20
2022-08-05T22:50:27.937Z,17.20
2022-08-05T22:52:58.867Z,17.20
2022-08-05T22:55:26.999Z,17.20
2022-08-05T22:58:05.665Z,17.10
2022-08-05T23:00:41.295Z,17.10
2022-08-05T23:03:09.399Z,17.10
2022-08-05T23:05:42.992Z,17.10
2022-08-05T23:08:13.189Z,17.00
2022-08-05T23:10:43.217Z,17.00
2022-08-05T23:13:11.274Z,17.00
2022-08-05T23:15:41.158Z,16.90
2022-08-05T23:18:15.900Z,16.80
2022-08-05T23:20:44.309Z,16.80
2022-08-05T23:23:13.092Z,16.70
2022-08-05T23:25:54.616Z,16.70
2022-08-05T23:28:28.541Z,16.70
2022-08-05T23:31:16.620Z,16.60
2022-08-05T23:34:04.732Z,16.50
2022-08-05T23:36:41.392Z,16.40
2022-08-05T23:39:17.409Z,16.40
2022-08-05T23:42:00.780Z,16.30
2022-08-05T23:44:31.204Z,16.30
2022-08-05T23:47:02.619Z,16.30
2022-08-05T23:49:42.899Z,16.20
2022-08-05T23:52:30.800Z,16.10
2022-08-05T23:55:02.574Z,16.10
2022-08-05T23:57:36.984Z,16.10
